Time;durP1;ratioP1;P1;durP2;ratioP2;P2;SDS_P1;SDS_P2;PMS_P1;PMS_P2;Temp;Humidity;BMP_temperature;BMP_pressure;BME280_temperature;BME280_humidity;BME280_pressure;Samples;Min_cycle;Max_cycle;Signal;HPM_P1;HPM_P2
2023/04/11 05:52:26;;;;;;;9.20;2.85;;;;;;;;;;10636036;27;20487;-83
2023/04/11 05:57:27;;;;;;;9.10;2.75;;;;;;;;;;10615693;27;20079;-84
2023/04/11 06:02:28;;;;;;;9.18;3.05;;;;;;;;;;10634407;28;20019;-85
2023/04/11 06:07:31;;;;;;;;;;;;;;;;;;10615722;27;20468;-84
2023/04/11 06:12:32;;;;;;;8.60;2.53;;;;;;;;;;10615384;28;19934;-84
2023/04/11 06:17:33;;;;;;;8.35;2.30;;;;;;;;;;10616956;27;20028;-85
2023/04/11 06:22:34;;;;;;;4.55;1.52;;;;;;;;;;10615227;28;20073;-85
2023/04/11 06:27:35;;;;;;;8.25;2.15;;;;;;;;;;10625262;27;20027;-84
2023/04/11 06:32:36;;;;;;;7.88;2.67;;;;;;;;;;10651515;28;20087;-85
2023/04/11 06:37:37;;;;;;;6.55;2.22;;;;;;;;;;10613843;27;20092;-85
2023/04/11 06:42:38;;;;;;;7.15;2.47;;;;;;;;;;10613548;28;20023;-85
2023/04/11 06:47:39;;;;;;;7.93;2.53;;;;;;;;;;10632498;27;20103;-85
2023/04/11 06:52:40;;;;;;;;;;;;;;;;;;10633150;28;20026;-85
2023/04/11 06:57:43;;;;;;;10.95;2.50;;;;;;;;;;10613414;27;19903;-86
2023/04/11 07:02:44;;;;;;;5.38;2.05;;;;;;;;;;10590870;28;20473;-83
2023/04/11 07:07:53;;;;;;;4.85;1.52;;;;;;;;;;10593306;28;20032;-85
2023/04/11 07:12:55;;;;;;;7.07;1.88;;;;;;;;;;10616665;28;20087;-87
2023/04/11 07:17:56;;;;;;;10.63;2.20;;;;;;;;;;10592214;28;20027;-84
2023/04/11 07:22:57;;;;;;;;;;;;;;;;;;10622934;28;20079;-83
2023/04/11 07:27:59;;;;;;;7.75;2.40;;;;;;;;;;10609706;28;19895;-82
2023/04/11 07:33:00;;;;;;;7.68;4.20;;;;;;;;;;10624764;28;20365;-82
2023/04/11 07:38:02;;;;;;;14.32;9.85;;;;;;;;;;10595306;28;20034;-83
2023/04/11 07:43:03;;;;;;;16.10;10.27;;;;;;;;;;10622089;28;20128;-82
2023/04/11 07:48:04;;;;;;;;;;;;;;;;;;10600229;28;20040;-82
2023/04/11 07:53:06;;;;;;;14.27;8.93;;;;;;;;;;10587597;28;19904;-83
2023/04/11 07:58:07;;;;;;;11.98;7.05;;;;;;;;;;10585407;28;20032;-85
2023/04/11 08:03:09;;;;;;;13.52;8.40;;;;;;;;;;10583751;28;20024;-83
2023/04/11 08:08:10;;;;;;;10.43;6.43;;;;;;;;;;10582471;28;20047;-84
2023/04/11 08:13:11;;;;;;;9.73;4.43;;;;;;;;;;10585567;28;20088;-83
2023/04/11 08:18:12;;;;;;;;;;;;;;;;;;10590722;28;20031;-82
2023/04/11 08:23:14;;;;;;;8.45;3.90;;;;;;;;;;10590896;28;20052;-82
2023/04/11 08:28:15;;;;;;;9.38;4.22;;;;;;;;;;10603333;28;20023;-81
2023/04/11 08:33:16;;;;;;;7.45;3.10;;;;;;;;;;10583197;28;20023;-82
2023/04/11 08:38:17;;;;;;;;;;;;;;;;;;10583761;28;20031;-81
2023/04/11 08:43:18;;;;;;;7.50;3.15;;;;;;;;;;10585746;28;19994;-81
2023/04/11 08:48:23;;;;;;;6.53;3.35;;;;;;;;;;10589112;28;20038;-79
2023/04/11 08:53:25;;;;;;;6.18;2.75;;;;;;;;;;10590939;28;20012;-83
2023/04/11 08:58:26;;;;;;;6.35;2.63;;;;;;;;;;10582714;28;20033;-82
2023/04/11 09:03:27;;;;;;;;;;;;;;;;;;10581972;28;20460;-81
2023/04/11 09:08:37;;;;;;;9.82;2.85;;;;;;;;;;10580918;28;19908;-82
2023/04/11 09:13:38;;;;;;;7.18;2.92;;;;;;;;;;10582153;28;20028;-83
2023/04/11 09:18:39;;;;;;;;;;;;;;;;;;10581790;28;20057;-83
2023/04/11 09:23:40;;;;;;;6.70;2.42;;;;;;;;;;10581195;28;19958;-82
2023/04/11 09:28:51;;;;;;;8.25;5.07;;;;;;;;;;10581249;28;20028;-81
2023/04/11 09:33:52;;;;;;;;;;;;;;;;;;10583256;28;20020;-81
2023/04/11 09:38:54;;;;;;;3.67;2.03;;;;;;;;;;10579849;28;20334;-83
2023/04/11 09:43:55;;;;;;;7.55;2.53;;;;;;;;;;10578568;28;20457;-81
2023/04/11 09:48:56;;;;;;;;;;;;;;;;;;10580312;28;20024;-82
2023/04/11 09:53:58;;;;;;;8.02;2.63;;;;;;;;;;10596791;28;19904;-82
2023/04/11 09:59:00;;;;;;;6.63;2.20;;;;;;;;;;10598711;28;20063;-82
2023/04/11 10:04:03;;;;;;;7.47;2.38;;;;;;;;;;10584191;28;20028;-81
2023/04/11 10:09:08;;;;;;;4.30;2.13;;;;;;;;;;10588082;28;20473;-81
2023/04/11 10:14:09;;;;;;;5.88;2.40;;;;;;;;;;10598377;28;20446;-81
2023/04/11 10:19:17;;;;;;;7.20;2.10;;;;;;;;;;10578011;28;20030;-81
2023/04/11 10:24:20;;;;;;;4.35;2.00;;;;;;;;;;10595854;28;20020;-83
2023/04/11 10:29:33;;;;;;;5.65;1.92;;;;;;;;;;10595970;28;20019;-82
2023/04/11 10:34:37;;;;;;;5.97;1.77;;;;;;;;;;10578915;28;20076;-81
2023/04/11 10:40:11;;;;;;;7.47;2.22;;;;;;;;;;10603380;28;20076;-81
2023/04/11 10:45:28;;;;;;;7.93;2.05;;;;;;;;;;10584215;28;20027;-82
2023/04/11 10:50:29;;;;;;;7.13;2.50;;;;;;;;;;10583951;28;20231;-82
2023/04/11 10:55:42;;;;;;;4.50;1.90;;;;;;;;;;10595511;28;20038;-81
2023/04/11 11:00:56;;;;;;;4.93;2.08;;;;;;;;;;10579950;28;20031;-82
2023/04/11 11:06:17;;;;;;;6.35;2.15;;;;;;;;;;10577921;28;20027;-83
2023/04/11 11:11:37;;;;;;;4.90;1.75;;;;;;;;;;10583362;28;20451;-82
2023/04/11 11:28:17;;;;;;;5.55;2.05;;;;;;;;;;10604544;28;20027;-84
2023/04/11 11:33:19;;;;;;;5.00;2.10;;;;;;;;;;10585508;28;20112;-84
2023/04/11 11:38:21;;;;;;;6.07;1.80;;;;;;;;;;10583221;28;20125;-83
2023/04/11 11:43:23;;;;;;;4.72;2.30;;;;;;;;;;10585925;28;20139;-83
2023/04/11 11:48:26;;;;;;;4.82;1.70;;;;;;;;;;10582462;28;20039;-82
2023/04/11 11:53:28;;;;;;;4.40;1.63;;;;;;;;;;10583263;28;20051;-84
2023/04/11 11:58:29;;;;;;;5.35;1.67;;;;;;;;;;10586304;28;20053;-81
2023/04/11 12:03:30;;;;;;;4.35;1.70;;;;;;;;;;10576905;22;20126;-82
2023/04/11 12:08:32;;;;;;;6.57;2.05;;;;;;;;;;10513214;28;20190;-83
2023/04/11 12:13:35;;;;;;;3.08;1.42;;;;;;;;;;10521108;28;20025;-82
2023/04/11 12:18:40;;;;;;;4.45;1.70;;;;;;;;;;10512456;28;20016;-83
2023/04/11 12:23:41;;;;;;;5.20;1.80;;;;;;;;;;10512247;28;20132;-83
2023/04/11 12:28:42;;;;;;;8.82;3.15;;;;;;;;;;10514772;28;20028;-83
2023/04/11 12:33:51;;;;;;;5.97;2.00;;;;;;;;;;10511292;28;20119;-83
2023/04/11 12:38:54;;;;;;;4.53;2.03;;;;;;;;;;10512989;28;20024;-84
2023/04/11 12:43:55;;;;;;;5.40;1.80;;;;;;;;;;10508643;28;20029;-82
2023/04/11 12:48:56;;;;;;;4.82;1.95;;;;;;;;;;10511046;28;20029;-84
2023/04/11 12:54:02;;;;;;;5.05;1.83;;;;;;;;;;10508504;28;20439;-83
2023/04/11 12:59:03;;;;;;;6.30;1.77;;;;;;;;;;10507898;28;20021;-83
2023/04/11 13:04:04;;;;;;;3.45;1.60;;;;;;;;;;10512586;28;20058;-82
2023/04/11 13:09:06;;;;;;;3.20;1.23;;;;;;;;;;10514658;28;20060;-82
2023/04/11 13:14:07;;;;;;;3.60;1.15;;;;;;;;;;10513311;28;20040;-82
2023/04/11 13:19:08;;;;;;;7.60;1.95;;;;;;;;;;10522664;28;20045;-82
2023/04/11 13:24:09;;;;;;;4.47;1.30;;;;;;;;;;10541958;28;20064;-82
2023/04/11 13:29:10;;;;;;;3.95;1.33;;;;;;;;;;10545492;28;20030;-83
2023/04/11 13:34:11;;;;;;;5.78;1.50;;;;;;;;;;10524547;28;20063;-83
2023/04/11 13:39:12;;;;;;;3.80;1.30;;;;;;;;;;10506432;28;20016;-83
2023/04/11 13:44:13;;;;;;;4.30;1.27;;;;;;;;;;10505973;28;20031;-84
2023/04/11 13:49:14;;;;;;;2.70;1.10;;;;;;;;;;10506081;28;20383;-82
2023/04/11 13:54:15;;;;;;;4.65;1.65;;;;;;;;;;10501705;28;20381;-81
2023/04/11 13:59:16;;;;;;;2.95;1.30;;;;;;;;;;10501282;28;20028;-82
2023/04/11 14:04:27;;;;;;;4.13;1.25;;;;;;;;;;10517076;28;20458;-83
2023/04/11 14:09:28;;;;;;;4.25;1.55;;;;;;;;;;10504515;28;20039;-82
2023/04/11 14:14:29;;;;;;;4.05;1.20;;;;;;;;;;10511082;28;20035;-83
2023/04/11 14:19:30;;;;;;;3.75;1.23;;;;;;;;;;10514343;28;20024;-83
2023/04/11 14:24:31;;;;;;;3.97;1.20;;;;;;;;;;10510442;28;20438;-82
2023/04/11 14:29:33;;;;;;;4.13;1.23;;;;;;;;;;10511602;28;20056;-82
2023/04/11 14:34:34;;;;;;;3.38;0.80;;;;;;;;;;10515227;28;20024;-84
2023/04/11 14:39:37;;;;;;;4.90;1.52;;;;;;;;;;10515850;28;20123;-85
2023/04/11 14:44:39;;;;;;;4.45;1.70;;;;;;;;;;10518146;28;20036;-84
2023/04/11 14:49:40;;;;;;;3.67;1.10;;;;;;;;;;10517334;28;20031;-85
2023/04/11 14:54:41;;;;;;;3.45;1.17;;;;;;;;;;10523517;28;20035;-84
2023/04/11 14:59:42;;;;;;;6.07;1.42;;;;;;;;;;10522741;28;20043;-85
2023/04/11 15:04:47;;;;;;;3.83;1.00;;;;;;;;;;10521364;28;20041;-85
2023/04/11 15:09:48;;;;;;;5.43;1.58;;;;;;;;;;10516920;28;20020;-84
2023/04/11 15:14:49;;;;;;;2.88;0.90;;;;;;;;;;10513441;28;20055;-84
2023/04/11 15:19:50;;;;;;;4.97;2.80;;;;;;;;;;10523954;28;20025;-83
2023/04/11 15:24:53;;;;;;;3.55;1.25;;;;;;;;;;10517942;28;20505;-83
2023/04/11 15:29:58;;;;;;;5.32;1.60;;;;;;;;;;10517757;28;20052;-83
2023/04/11 15:34:59;;;;;;;3.50;1.20;;;;;;;;;;10518573;28;20020;-83
2023/04/11 15:40:04;;;;;;;3.25;1.30;;;;;;;;;;10518360;28;20020;-82
2023/04/11 15:45:06;;;;;;;5.28;1.20;;;;;;;;;;10518602;28;20082;-83
2023/04/11 15:50:07;;;;;;;2.83;1.10;;;;;;;;;;10518779;28;20024;-82
2023/04/11 15:55:08;;;;;;;4.85;2.17;;;;;;;;;;10517915;28;20031;-84
2023/04/11 16:00:09;;;;;;;4.57;1.42;;;;;;;;;;10523314;28;20070;-82
2023/04/11 16:05:11;;;;;;;4.32;1.67;;;;;;;;;;10519712;28;20048;-82
2023/04/11 16:10:12;;;;;;;2.67;1.10;;;;;;;;;;10507414;28;20056;-82
2023/04/11 16:15:15;;;;;;;4.15;1.40;;;;;;;;;;10519330;28;20044;-83
2023/04/11 16:20:19;;;;;;;5.43;1.77;;;;;;;;;;10508213;28;20031;-82
2023/04/11 16:25:20;;;;;;;5.72;1.83;;;;;;;;;;10509421;28;20033;-84
2023/04/11 16:30:21;;;;;;;4.75;1.80;;;;;;;;;;10509791;28;20024;-84
2023/04/11 16:35:25;;;;;;;5.38;1.33;;;;;;;;;;10511529;28;20053;-84
2023/04/11 16:40:26;;;;;;;4.45;1.25;;;;;;;;;;10509041;28;20036;-84
2023/04/11 16:45:27;;;;;;;4.00;1.52;;;;;;;;;;10505062;28;20032;-84
2023/04/11 16:50:28;;;;;;;3.55;1.67;;;;;;;;;;10506936;28;20031;-85
2023/04/11 16:55:29;;;;;;;3.15;1.25;;;;;;;;;;10508649;28;20050;-84
2023/04/11 17:00:30;;;;;;;4.70;1.48;;;;;;;;;;10524312;28;20028;-85
2023/04/11 17:05:34;;;;;;;3.13;1.40;;;;;;;;;;10534493;28;20135;-85
2023/04/11 17:10:35;;;;;;;4.72;2.33;;;;;;;;;;10515474;28;20100;-85
2023/04/11 17:15:36;;;;;;;3.03;1.25;;;;;;;;;;10510443;28;20067;-85
2023/04/11 17:20:37;;;;;;;4.20;1.17;;;;;;;;;;10526630;28;20031;-82
2023/04/11 17:25:38;;;;;;;4.38;1.52;;;;;;;;;;10547425;28;20047;-85
2023/04/11 17:30:39;;;;;;;4.75;1.10;;;;;;;;;;10517855;28;20046;-85
2023/04/11 17:35:40;;;;;;;3.50;1.30;;;;;;;;;;10510500;28;20096;-86
2023/04/11 17:40:41;;;;;;;2.08;1.10;;;;;;;;;;10514054;28;20048;-85
2023/04/11 17:45:43;;;;;;;4.85;1.73;;;;;;;;;;10512538;28;20478;-85
2023/04/11 17:50:45;;;;;;;4.22;1.70;;;;;;;;;;10510114;28;20496;-85
2023/04/11 17:55:47;;;;;;;5.07;1.55;;;;;;;;;;10509659;28;20115;-84
2023/04/11 18:22:07;;;;;;;3.03;1.55;;;;;;;;;;10428090;28;19905;-82
2023/04/11 18:27:23;;;;;;;3.65;1.40;;;;;;;;;;10453384;28;20045;-81
2023/04/11 18:32:46;;;;;;;3.80;1.30;;;;;;;;;;10433463;28;20037;-82
2023/04/11 18:38:08;;;;;;;3.15;1.30;;;;;;;;;;10406715;28;20056;-81
2023/04/11 18:43:09;;;;;;;3.40;1.45;;;;;;;;;;10424639;28;20109;-83
2023/04/11 18:48:10;;;;;;;4.43;1.50;;;;;;;;;;10426135;28;20041;-83
2023/04/11 18:53:13;;;;;;;3.83;1.48;;;;;;;;;;10426231;28;20105;-83
2023/04/11 18:58:16;;;;;;;2.58;1.20;;;;;;;;;;10442321;28;20041;-80
2023/04/11 19:03:17;;;;;;;4.05;1.65;;;;;;;;;;10438137;28;20042;-85
2023/04/11 19:08:18;;;;;;;3.70;1.48;;;;;;;;;;10433031;28;20037;-82
2023/04/11 19:13:19;;;;;;;4.00;2.15;;;;;;;;;;10432779;28;20127;-83
